首页
METAR-TAF:

METAR-TAF

机场 :

Frontone, 意大利

纬度: 43-31N, 经度: 012-44E, 海拔: 570米

当前天气观测

该预报发布于28分钟前的00:55 UTC
风速5节,风向西转西南
温度 13°C
湿度 72%
气压 1020 hPa
能见度10公里或以上
1500米以下无云,无积雨云

METAR: LIVF 170055Z 25005KT CAVOK 13/08 Q1020 RMK SKC MON LIB VAL NIL VIS MIN 9999

时间: 03:23 (01:23 UTC)


TAF: 丢失

超过4000个机场的气象观测和天气预报(METAR&TAF报告)。

可查询的气象台以黄色和红色小点在地图上表示。

将鼠标移到小点上方,可查看气象台名称。

然后点击查看天气观测和预报。

如需切换地图:点击带黑十字的绿色按钮放大地图;点击带横线的绿色按钮缩小地图;或者点击绿色箭头查看邻近地区的地图。


METAR-TAF: